createdAt,value
2022-09-01T00:02:08.871Z,16.80
2022-09-01T00:04:58.428Z,16.80
2022-09-01T00:07:44.081Z,16.80
2022-09-01T00:10:29.755Z,16.80
2022-09-01T00:13:15.852Z,16.80
2022-09-01T00:16:04.186Z,16.80
2022-09-01T00:18:53.763Z,16.80
2022-09-01T00:21:43.701Z,16.90
2022-09-01T00:24:29.223Z,17.00
2022-09-01T00:27:15.202Z,17.00
2022-09-01T00:30:01.339Z,17.00
2022-09-01T00:32:47.362Z,17.20
2022-09-01T00:35:32.637Z,17.10
2022-09-01T00:38:22.864Z,17.20
2022-09-01T00:41:08.981Z,17.20
2022-09-01T00:44:00.260Z,17.20
2022-09-01T00:46:55.493Z,17.20
2022-09-01T00:49:49.530Z,17.20
2022-09-01T00:52:42.802Z,17.20
2022-09-01T00:55:32.632Z,17.00
2022-09-01T00:58:19.561Z,17.00
2022-09-01T01:01:07.834Z,16.90
2022-09-01T01:03:53.361Z,16.80
2022-09-01T01:06:40.912Z,16.80
2022-09-01T01:09:28.993Z,16.70
2022-09-01T01:12:18.770Z,16.70
2022-09-01T01:15:07.028Z,16.70
2022-09-01T01:17:52.119Z,16.70
2022-09-01T01:20:56.332Z,16.70
2022-09-01T01:24:02.035Z,16.70
2022-09-01T01:26:47.679Z,16.80
2022-09-01T01:29:39.910Z,16.80
2022-09-01T01:32:26.439Z,16.80
2022-09-01T01:35:15.832Z,16.80
2022-09-01T01:38:04.992Z,16.70
2022-09-01T01:40:53.725Z,16.80
2022-09-01T01:43:41.674Z,16.70
2022-09-01T01:46:27.567Z,16.60
2022-09-01T01:49:20.728Z,16.50
2022-09-01T01:52:08.273Z,16.40
2022-09-01T01:54:54.319Z,16.30
2022-09-01T01:57:47.969Z,16.20
2022-09-01T02:00:34.576Z,16.20
2022-09-01T02:03:25.032Z,16.20
2022-09-01T02:06:12.080Z,16.30
2022-09-01T02:08:59.047Z,16.20
2022-09-01T02:11:44.658Z,16.30
2022-09-01T02:14:31.408Z,16.30
2022-09-01T02:17:17.099Z,16.20
2022-09-01T02:20:03.491Z,16.20
2022-09-01T02:22:52.003Z,16.00
2022-09-01T02:26:13.998Z,15.70
2022-09-01T02:28:55.277Z,15.90
2022-09-01T02:31:46.262Z,16.00
2022-09-01T02:34:31.915Z,16.00
2022-09-01T02:37:17.771Z,16.00
2022-09-01T02:40:03.609Z,16.00
2022-09-01T02:42:53.058Z,16.00
2022-09-01T02:45:39.831Z,15.80
2022-09-01T02:48:37.150Z,15.70
2022-09-01T02:51:27.462Z,15.70
2022-09-01T02:54:19.125Z,15.70
2022-09-01T02:57:04.860Z,15.70
2022-09-01T02:59:50.317Z,15.60
2022-09-01T03:02:36.792Z,15.50
2022-09-01T03:05:26.951Z,15.50
2022-09-01T03:08:16.104Z,15.50
2022-09-01T03:11:02.036Z,15.60
2022-09-01T03:13:47.895Z,15.50
2022-09-01T03:16:33.868Z,15.60
2022-09-01T03:19:19.952Z,15.70
2022-09-01T03:22:06.133Z,15.60
2022-09-01T03:24:51.657Z,15.60
2022-09-01T03:27:37.779Z,15.60
2022-09-01T03:30:23.769Z,15.60
2022-09-01T03:33:09.512Z,15.60
2022-09-01T03:35:56.384Z,15.50
2022-09-01T03:38:43.738Z,15.50
2022-09-01T03:41:31.105Z,15.50
2022-09-01T03:44:17.056Z,15.50
2022-09-01T03:47:03.731Z,15.60
2022-09-01T03:49:51.734Z,15.60
2022-09-01T03:52:41.070Z,15.60
2022-09-01T03:55:32.366Z,15.60
2022-09-01T03:58:19.560Z,15.50
2022-09-01T04:01:05.221Z,15.50
2022-09-01T04:03:53.877Z,15.50
2022-09-01T04:06:45.662Z,15.50
2022-09-01T04:09:35.234Z,15.40
2022-09-01T04:12:20.509Z,15.30
2022-09-01T04:15:11.009Z,15.50
2022-09-01T04:18:20.065Z,15.30
2022-09-01T04:21:08.100Z,15.20
2022-09-01T04:23:55.428Z,15.20
2022-09-01T04:26:42.633Z,15.30
2022-09-01T04:29:31.432Z,15.30
2022-09-01T04:32:17.261Z,15.20
2022-09-01T04:35:11.570Z,15.30
2022-09-01T04:37:57.122Z,15.20
2022-09-01T04:40:43.032Z,15.20
2022-09-01T04:43:29.028Z,15.30
2022-09-01T04:46:17.177Z,15.30
2022-09-01T04:49:12.934Z,15.30
2022-09-01T04:51:59.433Z,15.20
2022-09-01T04:54:44.922Z,15.20
2022-09-01T04:57:31.409Z,15.20
2022-09-01T05:00:25.297Z,15.20
2022-09-01T05:03:11.591Z,15.20
2022-09-01T05:06:20.221Z,15.20
2022-09-01T05:09:13.859Z,15.30
2022-09-01T05:12:31.574Z,15.30
2022-09-01T05:15:17.224Z,15.20
2022-09-01T05:18:09.937Z,15.30
2022-09-01T05:20:57.479Z,15.30
2022-09-01T05:23:45.197Z,15.30
2022-09-01T05:26:34.556Z,15.40
2022-09-01T05:29:21.061Z,15.50
2022-09-01T05:32:10.117Z,15.50
2022-09-01T05:34:57.050Z,15.60
2022-09-01T05:37:43.478Z,15.80
2022-09-01T05:40:29.732Z,15.80
2022-09-01T05:43:15.115Z,15.90
2022-09-01T05:46:07.038Z,16.00
2022-09-01T05:48:54.726Z,16.10
2022-09-01T05:51:45.986Z,16.10
2022-09-01T05:54:38.231Z,16.20
2022-09-01T05:57:34.416Z,16.20
2022-09-01T06:00:21.019Z,16.30
2022-09-01T06:03:09.314Z,16.40
2022-09-01T06:06:03.420Z,16.40
2022-09-01T06:08:55.456Z,16.40
2022-09-01T06:11:42.288Z,16.30
2022-09-01T06:14:27.650Z,16.30
2022-09-01T06:17:16.194Z,16.30
2022-09-01T06:20:10.461Z,16.30
2022-09-01T06:22:56.757Z,16.40
2022-09-01T06:25:46.680Z,16.40
2022-09-01T06:28:34.976Z,16.40
2022-09-01T06:31:25.728Z,16.40
2022-09-01T06:34:17.633Z,16.40
2022-09-01T06:37:04.502Z,16.50
2022-09-01T06:39:50.666Z,16.60
2022-09-01T06:42:36.089Z,16.70
2022-09-01T06:45:23.794Z,16.60
2022-09-01T06:48:09.881Z,16.70
2022-09-01T06:51:20.857Z,16.70
2022-09-01T06:54:14.676Z,16.80
2022-09-01T07:00:20.820Z,17.10
2022-09-01T07:03:14.642Z,17.10
2022-09-01T07:06:58.701Z,17.20
2022-09-01T07:09:49.983Z,17.30
2022-09-01T07:13:05.757Z,17.20
2022-09-01T07:19:03.930Z,17.50
2022-09-01T07:22:09.513Z,17.80
2022-09-01T07:25:16.777Z,17.80
2022-09-01T07:28:39.896Z,18.00
2022-09-01T07:34:48.992Z,18.30
2022-09-01T07:44:12.951Z,18.60
2022-09-01T07:47:20.255Z,18.80
2022-09-01T07:50:25.354Z,19.00
2022-09-01T07:53:19.081Z,19.10
2022-09-01T07:56:10.923Z,19.40
2022-09-01T07:59:02.235Z,19.70
2022-09-01T08:01:47.995Z,19.90
2022-09-01T08:04:34.461Z,20.10
2022-09-01T08:07:20.527Z,20.20
2022-09-01T08:10:08.221Z,20.30
2022-09-01T08:12:57.697Z,20.50
2022-09-01T08:18:51.685Z,20.80
2022-09-01T08:21:49.427Z,20.90
2022-09-01T08:24:43.912Z,21.00
2022-09-01T08:27:29.540Z,21.20
2022-09-01T08:30:15.586Z,21.40
2022-09-01T08:33:10.744Z,21.60
2022-09-01T08:35:58.781Z,21.60
2022-09-01T08:38:45.356Z,21.60
2022-09-01T08:42:03.714Z,21.70
2022-09-01T08:45:12.819Z,22.10
2022-09-01T08:51:31.830Z,22.60
2022-09-01T08:54:37.503Z,22.70
2022-09-01T08:57:34.889Z,22.70
2022-09-01T09:00:58.013Z,22.30
2022-09-01T09:03:47.005Z,22.50
2022-09-01T09:06:41.157Z,22.90
2022-09-01T09:09:41.278Z,22.60
2022-09-01T09:12:29.906Z,23.10
2022-09-01T09:15:32.290Z,23.30
2022-09-01T09:18:56.736Z,23.40
2022-09-01T09:21:45.288Z,23.50
2022-09-01T09:24:51.707Z,23.70
2022-09-01T09:27:41.112Z,23.80
2022-09-01T09:30:29.618Z,23.80
2022-09-01T09:33:52.869Z,23.90
2022-09-01T09:36:39.208Z,24.10
2022-09-01T09:39:24.739Z,24.20
2022-09-01T09:42:15.996Z,24.20
2022-09-01T09:45:01.966Z,24.40
2022-09-01T09:47:47.716Z,24.50
2022-09-01T09:50:42.765Z,24.70
2022-09-01T09:53:30.397Z,24.80
2022-09-01T09:56:15.794Z,25.00
2022-09-01T09:59:01.846Z,25.00
2022-09-01T10:01:53.258Z,25.10
2022-09-01T10:04:38.885Z,25.10
2022-09-01T10:07:36.636Z,25.20
2022-09-01T10:10:40.340Z,25.30
2022-09-01T10:13:29.485Z,25.30
2022-09-01T10:16:35.031Z,25.30
2022-09-01T10:19:21.815Z,25.30
2022-09-01T10:22:10.025Z,25.40
2022-09-01T10:24:55.747Z,25.40
2022-09-01T10:27:46.428Z,25.50
2022-09-01T10:30:34.765Z,25.40
2022-09-01T10:33:22.238Z,25.50
2022-09-01T10:36:08.610Z,25.90
2022-09-01T10:39:04.715Z,26.20
2022-09-01T10:41:59.319Z,25.90
2022-09-01T10:44:57.876Z,25.90
2022-09-01T10:47:43.884Z,26.40
2022-09-01T10:50:35.347Z,26.70
2022-09-01T10:53:44.650Z,26.70
2022-09-01T10:56:44.651Z,26.70
2022-09-01T10:59:41.874Z,26.40
2022-09-01T11:02:35.855Z,26.60
2022-09-01T11:05:22.159Z,26.70
2022-09-01T11:08:29.961Z,26.80
2022-09-01T11:11:34.503Z,26.70
2022-09-01T11:14:23.571Z,27.10
2022-09-01T11:17:16.558Z,27.50
2022-09-01T11:20:23.394Z,27.70
2022-09-01T11:23:27.686Z,27.90
2022-09-01T11:26:32.423Z,28.10
2022-09-01T11:29:55.981Z,28.20
2022-09-01T11:32:46.836Z,27.90
2022-09-01T11:35:32.786Z,28.10
2022-09-01T11:38:20.163Z,28.40
2022-09-01T11:41:05.728Z,28.20
2022-09-01T11:43:55.327Z,27.60
2022-09-01T11:46:43.218Z,26.80
2022-09-01T11:49:35.691Z,26.20
2022-09-01T11:52:25.906Z,26.00
2022-09-01T11:55:11.850Z,26.20
2022-09-01T11:57:57.972Z,34.90
2022-09-01T12:00:44.031Z,40.60
2022-09-01T12:03:30.553Z,40.20
2022-09-01T12:06:25.481Z,43.40
2022-09-01T12:09:11.437Z,39.50
2022-09-01T12:11:56.865Z,40.40
2022-09-01T12:15:04.512Z,46.70
2022-09-01T12:17:48.240Z,49.70
2022-09-01T12:20:38.546Z,47.50
2022-09-01T12:23:40.303Z,48.70
2022-09-01T12:26:29.439Z,52.00
2022-09-01T12:29:16.340Z,49.20
2022-09-01T12:32:02.004Z,48.50
2022-09-01T12:35:01.484Z,47.10
2022-09-01T12:37:47.936Z,46.70
2022-09-01T12:40:35.859Z,49.30
2022-09-01T12:43:39.782Z,49.90
2022-09-01T12:46:43.537Z,48.10
2022-09-01T12:49:48.085Z,46.00
2022-09-01T12:52:44.563Z,45.60
2022-09-01T12:55:51.020Z,45.30
2022-09-01T12:58:36.297Z,42.80
2022-09-01T13:01:32.327Z,37.40
2022-09-01T13:04:21.168Z,33.70
2022-09-01T13:07:08.897Z,31.40
2022-09-01T13:09:55.972Z,35.60
2022-09-01T13:12:42.948Z,37.40
2022-09-01T13:15:28.421Z,38.20
2022-09-01T13:18:14.992Z,38.50
2022-09-01T13:21:01.096Z,37.00
2022-09-01T13:23:46.736Z,33.50
2022-09-01T13:26:33.355Z,31.00
2022-09-01T13:29:19.084Z,29.50
2022-09-01T13:32:21.309Z,29.10
2022-09-01T13:35:08.313Z,30.50
2022-09-01T13:37:53.800Z,30.90
2022-09-01T13:40:39.405Z,30.50
2022-09-01T13:43:28.093Z,30.00
2022-09-01T13:46:13.872Z,30.20
2022-09-01T13:49:02.965Z,30.50
2022-09-01T13:51:52.550Z,29.80
2022-09-01T13:54:38.125Z,29.40
2022-09-01T13:57:23.432Z,29.40
2022-09-01T14:00:13.247Z,29.00
2022-09-01T14:03:07.429Z,28.40
2022-09-01T14:05:52.675Z,27.60
2022-09-01T14:08:38.435Z,27.50
2022-09-01T14:11:24.587Z,27.30
2022-09-01T14:14:10.141Z,26.90
2022-09-01T14:16:55.634Z,27.10
2022-09-01T14:19:42.293Z,27.00
2022-09-01T14:22:27.816Z,26.80
2022-09-01T14:25:14.377Z,26.70
2022-09-01T14:28:01.917Z,26.90
2022-09-01T14:30:48.870Z,27.00
2022-09-01T14:33:34.094Z,26.90
2022-09-01T14:36:23.141Z,26.80
2022-09-01T14:39:08.337Z,26.90
2022-09-01T14:41:54.931Z,27.10
2022-09-01T14:44:40.668Z,26.90
2022-09-01T14:47:26.410Z,26.80
2022-09-01T14:50:15.976Z,26.70
2022-09-01T14:53:04.151Z,26.60
2022-09-01T14:55:55.094Z,26.50
2022-09-01T14:58:42.173Z,26.40
2022-09-01T15:01:34.636Z,26.20
2022-09-01T15:04:20.573Z,26.30
2022-09-01T15:07:06.712Z,26.20
2022-09-01T15:09:52.707Z,26.10
2022-09-01T15:12:39.679Z,26.00
2022-09-01T15:15:27.561Z,25.80
2022-09-01T15:18:13.002Z,25.70
2022-09-01T15:20:58.636Z,25.70
2022-09-01T15:23:44.696Z,25.60
2022-09-01T15:26:30.946Z,25.60
2022-09-01T15:29:16.229Z,25.60
2022-09-01T15:32:02.130Z,25.70
2022-09-01T15:34:47.587Z,25.60
2022-09-01T15:37:34.982Z,25.70
2022-09-01T15:40:20.515Z,25.70
2022-09-01T15:43:06.327Z,25.60
2022-09-01T15:45:51.796Z,25.40
2022-09-01T15:48:37.991Z,25.50
2022-09-01T15:51:23.263Z,25.20
2022-09-01T15:54:15.168Z,25.20
2022-09-01T15:57:00.515Z,25.20
2022-09-01T15:59:46.538Z,25.10
2022-09-01T16:02:32.137Z,25.30
2022-09-01T16:05:17.813Z,25.30
2022-09-01T16:08:04.738Z,25.30
2022-09-01T16:10:50.019Z,25.20
2022-09-01T16:13:37.387Z,25.00
2022-09-01T16:16:54.227Z,24.80
2022-09-01T16:19:45.621Z,24.70
2022-09-01T16:22:35.739Z,24.70
2022-09-01T16:25:31.428Z,24.40
2022-09-01T16:28:30.253Z,24.20
2022-09-01T16:31:21.392Z,24.00
2022-09-01T16:34:14.629Z,23.90
2022-09-01T16:37:16.228Z,24.00
2022-09-01T16:40:28.035Z,24.00
2022-09-01T16:43:46.744Z,23.90
2022-09-01T16:46:58.589Z,24.30
2022-09-01T16:50:10.529Z,24.30
2022-09-01T16:53:30.140Z,24.30
2022-09-01T16:56:35.217Z,24.00
2022-09-01T16:59:34.571Z,23.80
2022-09-01T17:02:59.675Z,23.80
2022-09-01T17:06:01.820Z,23.70
2022-09-01T17:08:56.138Z,23.70
2022-09-01T17:11:57.984Z,23.60
2022-09-01T17:14:59.532Z,23.60
2022-09-01T17:18:23.004Z,23.60
2022-09-01T17:21:16.612Z,23.60
2022-09-01T17:24:31.857Z,23.60
2022-09-01T17:27:23.998Z,23.60
2022-09-01T17:30:09.900Z,22.90
2022-09-01T17:33:18.306Z,22.60
2022-09-01T17:36:10.570Z,22.50
2022-09-01T17:39:08.176Z,22.40
2022-09-01T17:41:58.998Z,22.20
2022-09-01T17:45:19.120Z,22.20
2022-09-01T17:48:18.415Z,22.20
2022-09-01T17:51:12.486Z,22.10
2022-09-01T17:54:24.768Z,22.20
2022-09-01T17:57:28.702Z,22.20
2022-09-01T18:00:23.112Z,22.20
2022-09-01T18:03:11.381Z,22.10
2022-09-01T18:06:08.896Z,22.00
2022-09-01T18:08:58.281Z,21.90
2022-09-01T18:12:10.415Z,21.80
2022-09-01T18:15:08.683Z,21.70
2022-09-01T18:18:05.186Z,21.70
2022-09-01T18:20:55.984Z,21.70
2022-09-01T18:23:44.268Z,21.90
2022-09-01T18:26:38.725Z,22.00
2022-09-01T18:29:28.368Z,22.10
2022-09-01T18:32:32.619Z,22.20
2022-09-01T18:35:37.687Z,22.30
2022-09-01T18:38:40.096Z,22.30
2022-09-01T18:41:33.875Z,22.10
2022-09-01T18:44:32.554Z,22.00
2022-09-01T18:47:41.782Z,22.00
2022-09-01T18:50:42.547Z,21.70
2022-09-01T18:53:50.712Z,21.50
2022-09-01T18:57:02.428Z,21.30
2022-09-01T18:59:53.625Z,21.20
2022-09-01T19:02:54.153Z,21.10
2022-09-01T19:06:10.864Z,20.80
2022-09-01T19:09:04.061Z,20.60
2022-09-01T19:11:52.194Z,20.60
2022-09-01T19:14:40.177Z,20.50
2022-09-01T19:18:08.605Z,20.30
2022-09-01T19:21:05.709Z,20.40
2022-09-01T19:24:03.677Z,20.60
2022-09-01T19:27:00.187Z,20.50
2022-09-01T19:29:56.065Z,20.60
2022-09-01T19:32:42.083Z,20.70
2022-09-01T19:35:29.674Z,20.80
2022-09-01T19:38:20.700Z,20.80
2022-09-01T19:41:18.496Z,20.80
2022-09-01T19:44:28.478Z,20.80
2022-09-01T19:47:34.734Z,20.70
2022-09-01T19:50:23.932Z,20.70
2022-09-01T19:53:17.881Z,20.60
2022-09-01T19:56:29.100Z,20.60
2022-09-01T19:59:22.932Z,20.60
2022-09-01T20:02:28.891Z,20.60
2022-09-01T20:05:37.821Z,20.50
2022-09-01T20:08:34.681Z,20.40
2022-09-01T20:11:43.996Z,20.10
2022-09-01T20:14:47.118Z,20.10
2022-09-01T20:17:45.396Z,19.90
2022-09-01T20:20:38.993Z,19.90
2022-09-01T20:23:27.199Z,19.70
2022-09-01T20:26:25.443Z,19.80
2022-09-01T20:29:33.841Z,19.80
2022-09-01T20:32:27.560Z,19.70
2022-09-01T20:35:17.400Z,19.80
2022-09-01T20:38:44.482Z,19.80
2022-09-01T20:41:49.205Z,19.70
2022-09-01T20:44:50.989Z,19.60
2022-09-01T20:47:36.356Z,19.50
2022-09-01T20:50:30.413Z,19.50
2022-09-01T20:53:15.720Z,19.50
2022-09-01T20:56:38.051Z,19.30
2022-09-01T20:59:35.541Z,19.40
2022-09-01T21:02:46.387Z,19.50
2022-09-01T21:05:53.589Z,19.50
2022-09-01T21:08:56.510Z,19.40
2022-09-01T21:11:47.324Z,19.50
2022-09-01T21:15:10.792Z,19.50
2022-09-01T21:18:08.324Z,19.50
2022-09-01T21:21:07.063Z,19.40
2022-09-01T21:23:53.447Z,19.40
2022-09-01T21:26:40.230Z,19.40
2022-09-01T21:29:35.450Z,19.20
2022-09-01T21:32:22.679Z,19.20
2022-09-01T21:35:11.938Z,19.20
2022-09-01T21:37:57.084Z,19.30
2022-09-01T21:40:42.549Z,19.30
2022-09-01T21:43:41.594Z,19.30
2022-09-01T21:46:27.288Z,19.30
2022-09-01T21:49:14.197Z,19.30
2022-09-01T21:51:59.906Z,19.20
2022-09-01T21:54:45.384Z,19.10
2022-09-01T21:57:31.505Z,19.20
2022-09-01T22:00:20.221Z,19.10
2022-09-01T22:03:09.705Z,19.10
2022-09-01T22:05:54.884Z,19.00
2022-09-01T22:08:40.902Z,18.90
2022-09-01T22:11:28.921Z,18.90
2022-09-01T22:14:15.123Z,19.10
2022-09-01T22:17:04.318Z,19.20
2022-09-01T22:19:50.072Z,19.10
2022-09-01T22:22:35.877Z,18.90
2022-09-01T22:25:23.827Z,19.00
2022-09-01T22:28:09.732Z,19.10
2022-09-01T22:30:54.885Z,19.10
2022-09-01T22:33:40.357Z,19.10
2022-09-01T22:36:32.387Z,18.90
2022-09-01T22:39:18.387Z,19.00
2022-09-01T22:42:04.098Z,18.80
2022-09-01T22:44:49.458Z,18.80
2022-09-01T22:47:37.377Z,18.80
2022-09-01T22:50:23.788Z,18.70
2022-09-01T22:53:10.335Z,18.50
2022-09-01T22:55:55.684Z,18.70
2022-09-01T22:58:41.979Z,18.60
2022-09-01T23:01:31.552Z,18.50
2022-09-01T23:04:18.824Z,18.70
2022-09-01T23:07:05.920Z,18.90
2022-09-01T23:24:17.257Z,18.70
2022-09-01T23:27:05.516Z,18.40
2022-09-01T23:29:51.323Z,18.70
2022-09-01T23:32:37.460Z,18.70
2022-09-01T23:35:23.276Z,18.70
2022-09-01T23:38:10.517Z,18.90
2022-09-01T23:40:56.760Z,18.90
2022-09-01T23:43:43.065Z,18.80
2022-09-01T23:46:36.917Z,18.90
2022-09-01T23:49:22.725Z,18.90
2022-09-01T23:52:08.410Z,19.20
2022-09-01T23:54:54.479Z,19.30
2022-09-01T23:57:39.818Z,19.40
